sensor_id;sensor_type;location;lat;lon;timestamp;temperature;humidity
39925;DHT22;25592;49.986;11.618;2023-05-13T00:01:59;14.20;92.30
39925;DHT22;25592;49.986;11.618;2023-05-13T00:04:45;14.20;92.20
39925;DHT22;25592;49.986;11.618;2023-05-13T00:07:30;14.20;92.50
39925;DHT22;25592;49.986;11.618;2023-05-13T00:10:16;14.30;92.20
39925;DHT22;25592;49.986;11.618;2023-05-13T00:13:01;14.30;92.30
39925;DHT22;25592;49.986;11.618;2023-05-13T00:15:47;14.30;92.30
39925;DHT22;25592;49.986;11.618;2023-05-13T00:18:32;14.30;92.50
39925;DHT22;25592;49.986;11.618;2023-05-13T00:21:18;14.20;92.30
39925;DHT22;25592;49.986;11.618;2023-05-13T00:24:03;14.10;92.50
39925;DHT22;25592;49.986;11.618;2023-05-13T00:26:49;14.00;92.40
39925;DHT22;25592;49.986;11.618;2023-05-13T00:29:34;14.00;92.30
39925;DHT22;25592;49.986;11.618;2023-05-13T00:32:20;14.00;92.40
39925;DHT22;25592;49.986;11.618;2023-05-13T00:35:05;14.00;92.70
39925;DHT22;25592;49.986;11.618;2023-05-13T00:37:50;13.80;92.20
39925;DHT22;25592;49.986;11.618;2023-05-13T00:40:37;13.70;93.00
39925;DHT22;25592;49.986;11.618;2023-05-13T00:43:23;13.80;92.90
39925;DHT22;25592;49.986;11.618;2023-05-13T00:46:09;13.60;92.60
39925;DHT22;25592;49.986;11.618;2023-05-13T00:48:54;13.60;93.00
39925;DHT22;25592;49.986;11.618;2023-05-13T00:51:39;13.70;92.90
39925;DHT22;25592;49.986;11.618;2023-05-13T00:54:25;13.70;93.10
39925;DHT22;25592;49.986;11.618;2023-05-13T00:57:11;13.70;92.80
39925;DHT22;25592;49.986;11.618;2023-05-13T00:59:56;13.70;92.70
39925;DHT22;25592;49.986;11.618;2023-05-13T01:02:56;13.70;92.80
39925;DHT22;25592;49.986;11.618;2023-05-13T01:05:56;13.80;92.90
39925;DHT22;25592;49.986;11.618;2023-05-13T01:08:56;13.70;93.00
39925;DHT22;25592;49.986;11.618;2023-05-13T01:11:45;13.70;93.00
39925;DHT22;25592;49.986;11.618;2023-05-13T01:14:34;13.70;93.10
39925;DHT22;25592;49.986;11.618;2023-05-13T01:17:29;13.80;92.90
39925;DHT22;25592;49.986;11.618;2023-05-13T01:20:20;13.60;93.10
39925;DHT22;25592;49.986;11.618;2023-05-13T01:23:08;13.60;93.40
39925;DHT22;25592;49.986;11.618;2023-05-13T01:25:54;13.60;93.30
39925;DHT22;25592;49.986;11.618;2023-05-13T01:28:39;13.60;93.30
39925;DHT22;25592;49.986;11.618;2023-05-13T01:31:24;13.60;93.20
39925;DHT22;25592;49.986;11.618;2023-05-13T01:34:11;13.60;93.20
39925;DHT22;25592;49.986;11.618;2023-05-13T01:36:58;13.60;93.20
39925;DHT22;25592;49.986;11.618;2023-05-13T01:39:44;13.60;93.30
39925;DHT22;25592;49.986;11.618;2023-05-13T01:42:30;13.60;93.10
39925;DHT22;25592;49.986;11.618;2023-05-13T01:45:15;13.60;93.30
39925;DHT22;25592;49.986;11.618;2023-05-13T01:48:01;13.70;93.00
39925;DHT22;25592;49.986;11.618;2023-05-13T01:50:46;13.60;93.10
39925;DHT22;25592;49.986;11.618;2023-05-13T01:53:32;13.60;93.10
39925;DHT22;25592;49.986;11.618;2023-05-13T01:56:17;13.60;93.00
39925;DHT22;25592;49.986;11.618;2023-05-13T01:59:02;13.70;93.00
39925;DHT22;25592;49.986;11.618;2023-05-13T02:01:48;13.60;93.20
39925;DHT22;25592;49.986;11.618;2023-05-13T02:04:33;13.70;93.10
39925;DHT22;25592;49.986;11.618;2023-05-13T02:07:18;13.70;93.10
39925;DHT22;25592;49.986;11.618;2023-05-13T02:10:04;13.70;93.10
39925;DHT22;25592;49.986;11.618;2023-05-13T02:12:50;13.70;93.00
39925;DHT22;25592;49.986;11.618;2023-05-13T02:15:35;13.60;92.90
39925;DHT22;25592;49.986;11.618;2023-05-13T02:18:20;13.50;93.30
39925;DHT22;25592;49.986;11.618;2023-05-13T02:21:06;13.50;93.20
39925;DHT22;25592;49.986;11.618;2023-05-13T02:23:51;13.40;93.20
39925;DHT22;25592;49.986;11.618;2023-05-13T02:26:37;13.30;93.20
39925;DHT22;25592;49.986;11.618;2023-05-13T02:29:22;13.20;93.50
39925;DHT22;25592;49.986;11.618;2023-05-13T02:32:07;13.20;93.50
39925;DHT22;25592;49.986;11.618;2023-05-13T02:34:53;13.30;93.50
39925;DHT22;25592;49.986;11.618;2023-05-13T02:37:38;13.40;93.30
39925;DHT22;25592;49.986;11.618;2023-05-13T02:40:23;13.50;93.20
39925;DHT22;25592;49.986;11.618;2023-05-13T02:43:09;13.50;93.20
39925;DHT22;25592;49.986;11.618;2023-05-13T02:45:54;13.40;93.30
39925;DHT22;25592;49.986;11.618;2023-05-13T02:48:39;13.40;93.40
39925;DHT22;25592;49.986;11.618;2023-05-13T02:51:25;13.30;93.50
39925;DHT22;25592;49.986;11.618;2023-05-13T02:54:10;13.30;93.50
39925;DHT22;25592;49.986;11.618;2023-05-13T02:56:55;13.40;93.50
39925;DHT22;25592;49.986;11.618;2023-05-13T02:59:41;13.40;93.10
39925;DHT22;25592;49.986;11.618;2023-05-13T03:02:26;13.40;93.30
39925;DHT22;25592;49.986;11.618;2023-05-13T03:05:12;13.40;93.30
39925;DHT22;25592;49.986;11.618;2023-05-13T03:07:57;13.40;93.20
39925;DHT22;25592;49.986;11.618;2023-05-13T03:10:43;13.40;93.30
39925;DHT22;25592;49.986;11.618;2023-05-13T03:13:28;13.40;93.30
39925;DHT22;25592;49.986;11.618;2023-05-13T03:16:14;13.40;93.20
39925;DHT22;25592;49.986;11.618;2023-05-13T03:18:59;13.40;93.30
39925;DHT22;25592;49.986;11.618;2023-05-13T03:21:44;13.50;93.10
39925;DHT22;25592;49.986;11.618;2023-05-13T03:24:30;13.30;93.10
39925;DHT22;25592;49.986;11.618;2023-05-13T03:27:15;13.40;93.20
39925;DHT22;25592;49.986;11.618;2023-05-13T03:30:01;13.40;93.30
39925;DHT22;25592;49.986;11.618;2023-05-13T03:32:46;13.40;93.40
39925;DHT22;25592;49.986;11.618;2023-05-13T03:35:32;13.40;93.30
39925;DHT22;25592;49.986;11.618;2023-05-13T03:38:17;13.50;93.10
39925;DHT22;25592;49.986;11.618;2023-05-13T03:41:03;13.50;93.30
39925;DHT22;25592;49.986;11.618;2023-05-13T03:43:48;13.50;93.30
39925;DHT22;25592;49.986;11.618;2023-05-13T03:46:33;13.50;93.30
39925;DHT22;25592;49.986;11.618;2023-05-13T03:49:19;13.50;93.20
39925;DHT22;25592;49.986;11.618;2023-05-13T03:52:04;13.60;93.40
39925;DHT22;25592;49.986;11.618;2023-05-13T03:54:52;13.60;93.30
39925;DHT22;25592;49.986;11.618;2023-05-13T03:57:37;13.60;93.10
39925;DHT22;25592;49.986;11.618;2023-05-13T04:00:22;13.60;93.10
39925;DHT22;25592;49.986;11.618;2023-05-13T04:03:08;13.70;93.20
39925;DHT22;25592;49.986;11.618;2023-05-13T04:05:54;13.70;93.30
39925;DHT22;25592;49.986;11.618;2023-05-13T04:08:40;13.70;93.30
39925;DHT22;25592;49.986;11.618;2023-05-13T04:11:26;13.70;93.40
39925;DHT22;25592;49.986;11.618;2023-05-13T04:14:11;13.70;93.20
39925;DHT22;25592;49.986;11.618;2023-05-13T04:16:56;13.80;93.30
39925;DHT22;25592;49.986;11.618;2023-05-13T04:19:42;13.70;93.40
39925;DHT22;25592;49.986;11.618;2023-05-13T04:22:27;13.70;93.60
39925;DHT22;25592;49.986;11.618;2023-05-13T04:25:12;13.80;93.80
39925;DHT22;25592;49.986;11.618;2023-05-13T04:27:58;13.80;93.50
39925;DHT22;25592;49.986;11.618;2023-05-13T04:30:43;13.90;93.20
39925;DHT22;25592;49.986;11.618;2023-05-13T04:33:29;13.90;93.30
39925;DHT22;25592;49.986;11.618;2023-05-13T04:36:14;13.90;93.70
39925;DHT22;25592;49.986;11.618;2023-05-13T04:39:00;13.90;93.80
39925;DHT22;25592;49.986;11.618;2023-05-13T04:41:45;13.80;93.60
39925;DHT22;25592;49.986;11.618;2023-05-13T04:44:30;13.90;93.80
39925;DHT22;25592;49.986;11.618;2023-05-13T04:47:17;13.90;93.90
39925;DHT22;25592;49.986;11.618;2023-05-13T04:50:03;14.00;94.00
39925;DHT22;25592;49.986;11.618;2023-05-13T04:52:49;14.00;94.20
39925;DHT22;25592;49.986;11.618;2023-05-13T04:55:34;14.00;94.40
39925;DHT22;25592;49.986;11.618;2023-05-13T04:58:20;14.00;94.70
39925;DHT22;25592;49.986;11.618;2023-05-13T05:01:05;14.10;94.60
39925;DHT22;25592;49.986;11.618;2023-05-13T05:03:50;14.10;94.50
39925;DHT22;25592;49.986;11.618;2023-05-13T05:06:36;14.10;94.60
39925;DHT22;25592;49.986;11.618;2023-05-13T05:09:21;14.20;94.60
39925;DHT22;25592;49.986;11.618;2023-05-13T05:12:07;14.20;95.00
39925;DHT22;25592;49.986;11.618;2023-05-13T05:14:52;14.30;95.00
39925;DHT22;25592;49.986;11.618;2023-05-13T05:17:37;14.20;95.10
39925;DHT22;25592;49.986;11.618;2023-05-13T05:20:23;14.20;95.20
39925;DHT22;25592;49.986;11.618;2023-05-13T05:23:08;14.20;94.80
39925;DHT22;25592;49.986;11.618;2023-05-13T05:25:54;14.30;94.80
39925;DHT22;25592;49.986;11.618;2023-05-13T05:28:54;14.30;95.10
39925;DHT22;25592;49.986;11.618;2023-05-13T05:31:40;14.30;95.20
39925;DHT22;25592;49.986;11.618;2023-05-13T05:34:25;14.30;94.70
39925;DHT22;25592;49.986;11.618;2023-05-13T05:37:11;14.30;94.90
39925;DHT22;25592;49.986;11.618;2023-05-13T05:39:56;14.40;94.70
39925;DHT22;25592;49.986;11.618;2023-05-13T05:42:41;14.40;94.60
39925;DHT22;25592;49.986;11.618;2023-05-13T05:45:27;14.30;94.10
39925;DHT22;25592;49.986;11.618;2023-05-13T05:48:12;14.30;93.30
39925;DHT22;25592;49.986;11.618;2023-05-13T05:50:58;14.20;93.40
39925;DHT22;25592;49.986;11.618;2023-05-13T05:53:43;14.30;93.50
39925;DHT22;25592;49.986;11.618;2023-05-13T05:56:29;14.30;93.20
39925;DHT22;25592;49.986;11.618;2023-05-13T05:59:14;14.30;93.90
39925;DHT22;25592;49.986;11.618;2023-05-13T06:02:00;14.40;94.30
39925;DHT22;25592;49.986;11.618;2023-05-13T06:04:45;14.40;94.10
39925;DHT22;25592;49.986;11.618;2023-05-13T06:07:30;14.50;94.20
39925;DHT22;25592;49.986;11.618;2023-05-13T06:10:16;14.50;94.20
39925;DHT22;25592;49.986;11.618;2023-05-13T06:13:01;14.40;93.90
39925;DHT22;25592;49.986;11.618;2023-05-13T06:15:46;14.50;93.90
39925;DHT22;25592;49.986;11.618;2023-05-13T06:18:32;14.50;94.30
39925;DHT22;25592;49.986;11.618;2023-05-13T06:21:17;14.40;93.10
39925;DHT22;25592;49.986;11.618;2023-05-13T06:24:03;14.10;93.40
39925;DHT22;25592;49.986;11.618;2023-05-13T06:26:48;14.20;93.80
39925;DHT22;25592;49.986;11.618;2023-05-13T06:29:34;14.30;94.20
39925;DHT22;25592;49.986;11.618;2023-05-13T06:32:19;14.40;94.50
39925;DHT22;25592;49.986;11.618;2023-05-13T06:35:05;14.50;94.60
39925;DHT22;25592;49.986;11.618;2023-05-13T06:37:50;14.40;94.50
39925;DHT22;25592;49.986;11.618;2023-05-13T06:40:35;14.50;94.30
39925;DHT22;25592;49.986;11.618;2023-05-13T06:43:21;14.60;94.10
39925;DHT22;25592;49.986;11.618;2023-05-13T06:46:06;14.70;94.50
39925;DHT22;25592;49.986;11.618;2023-05-13T06:48:52;14.70;94.40
39925;DHT22;25592;49.986;11.618;2023-05-13T06:51:39;14.70;94.70
39925;DHT22;25592;49.986;11.618;2023-05-13T06:54:24;14.70;94.40
39925;DHT22;25592;49.986;11.618;2023-05-13T06:57:11;14.70;94.50
39925;DHT22;25592;49.986;11.618;2023-05-13T06:59:57;14.60;93.40
39925;DHT22;25592;49.986;11.618;2023-05-13T07:02:42;14.60;93.50
39925;DHT22;25592;49.986;11.618;2023-05-13T07:05:28;14.50;93.30
39925;DHT22;25592;49.986;11.618;2023-05-13T07:08:13;14.50;93.60
39925;DHT22;25592;49.986;11.618;2023-05-13T07:11:02;14.60;94.90
39925;DHT22;25592;49.986;11.618;2023-05-13T07:13:47;14.60;93.80
39925;DHT22;25592;49.986;11.618;2023-05-13T07:16:33;14.70;94.00
39925;DHT22;25592;49.986;11.618;2023-05-13T07:19:18;14.60;93.70
39925;DHT22;25592;49.986;11.618;2023-05-13T07:22:04;14.70;94.00
39925;DHT22;25592;49.986;11.618;2023-05-13T07:24:50;14.80;94.30
39925;DHT22;25592;49.986;11.618;2023-05-13T07:27:35;14.80;93.70
39925;DHT22;25592;49.986;11.618;2023-05-13T07:30:21;14.70;93.70
39925;DHT22;25592;49.986;11.618;2023-05-13T07:33:06;14.70;94.20
39925;DHT22;25592;49.986;11.618;2023-05-13T07:35:52;14.90;93.90
39925;DHT22;25592;49.986;11.618;2023-05-13T07:38:37;14.90;93.80
39925;DHT22;25592;49.986;11.618;2023-05-13T07:41:22;15.00;93.90
39925;DHT22;25592;49.986;11.618;2023-05-13T07:44:08;15.00;93.60
39925;DHT22;25592;49.986;11.618;2023-05-13T07:46:56;15.10;93.50
39925;DHT22;25592;49.986;11.618;2023-05-13T07:49:42;15.10;93.30
39925;DHT22;25592;49.986;11.618;2023-05-13T07:52:27;15.10;93.80
39925;DHT22;25592;49.986;11.618;2023-05-13T07:55:14;15.30;94.00
39925;DHT22;25592;49.986;11.618;2023-05-13T07:57:59;15.40;93.30
39925;DHT22;25592;49.986;11.618;2023-05-13T08:00:44;15.40;93.50
39925;DHT22;25592;49.986;11.618;2023-05-13T08:03:30;15.50;93.30
39925;DHT22;25592;49.986;11.618;2023-05-13T08:06:15;15.70;92.90
39925;DHT22;25592;49.986;11.618;2023-05-13T08:09:01;15.70;93.10
39925;DHT22;25592;49.986;11.618;2023-05-13T08:11:46;15.80;93.10
39925;DHT22;25592;49.986;11.618;2023-05-13T08:14:32;16.00;93.40
39925;DHT22;25592;49.986;11.618;2023-05-13T08:17:17;16.10;92.90
39925;DHT22;25592;49.986;11.618;2023-05-13T08:20:03;16.00;92.40
39925;DHT22;25592;49.986;11.618;2023-05-13T08:22:49;16.10;92.30
39925;DHT22;25592;49.986;11.618;2023-05-13T08:25:34;16.20;92.60
39925;DHT22;25592;49.986;11.618;2023-05-13T08:28:20;16.20;92.50
39925;DHT22;25592;49.986;11.618;2023-05-13T08:31:05;16.40;92.90
39925;DHT22;25592;49.986;11.618;2023-05-13T08:33:52;16.50;92.10
39925;DHT22;25592;49.986;11.618;2023-05-13T08:36:37;16.40;92.50
39925;DHT22;25592;49.986;11.618;2023-05-13T08:39:22;16.50;92.20
39925;DHT22;25592;49.986;11.618;2023-05-13T08:42:09;16.60;91.90
39925;DHT22;25592;49.986;11.618;2023-05-13T08:44:55;16.60;91.80
39925;DHT22;25592;49.986;11.618;2023-05-13T08:47:49;16.50;91.00
39925;DHT22;25592;49.986;11.618;2023-05-13T08:50:36;16.60;91.60
39925;DHT22;25592;49.986;11.618;2023-05-13T08:53:24;16.50;91.20
39925;DHT22;25592;49.986;11.618;2023-05-13T08:56:10;16.50;91.10
39925;DHT22;25592;49.986;11.618;2023-05-13T08:58:56;16.50;91.30
39925;DHT22;25592;49.986;11.618;2023-05-13T09:01:42;16.60;91.60
39925;DHT22;25592;49.986;11.618;2023-05-13T09:04:29;16.70;91.50
39925;DHT22;25592;49.986;11.618;2023-05-13T09:07:14;16.70;91.10
39925;DHT22;25592;49.986;11.618;2023-05-13T09:10:00;16.80;90.80
39925;DHT22;25592;49.986;11.618;2023-05-13T09:12:53;16.90;90.90
39925;DHT22;25592;49.986;11.618;2023-05-13T09:15:43;16.90;90.10
39925;DHT22;25592;49.986;11.618;2023-05-13T09:18:29;16.90;90.70
39925;DHT22;25592;49.986;11.618;2023-05-13T09:21:24;17.00;90.00
39925;DHT22;25592;49.986;11.618;2023-05-13T09:24:14;17.00;90.30
39925;DHT22;25592;49.986;11.618;2023-05-13T09:27:03;16.90;90.50
39925;DHT22;25592;49.986;11.618;2023-05-13T09:29:58;17.20;90.80
39925;DHT22;25592;49.986;11.618;2023-05-13T09:32:43;17.30;90.50
39925;DHT22;25592;49.986;11.618;2023-05-13T09:35:30;17.20;90.60
39925;DHT22;25592;49.986;11.618;2023-05-13T09:38:27;17.30;90.60
39925;DHT22;25592;49.986;11.618;2023-05-13T09:41:18;17.20;90.40
39925;DHT22;25592;49.986;11.618;2023-05-13T09:44:03;17.30;90.80
39925;DHT22;25592;49.986;11.618;2023-05-13T09:46:50;17.50;90.60
39925;DHT22;25592;49.986;11.618;2023-05-13T09:49:36;17.40;90.70
39925;DHT22;25592;49.986;11.618;2023-05-13T09:52:22;17.40;90.80
39925;DHT22;25592;49.986;11.618;2023-05-13T09:55:08;17.40;90.10
39925;DHT22;25592;49.986;11.618;2023-05-13T09:57:54;17.40;90.50
39925;DHT22;25592;49.986;11.618;2023-05-13T10:00:40;17.40;90.00
39925;DHT22;25592;49.986;11.618;2023-05-13T10:03:27;17.30;90.30
39925;DHT22;25592;49.986;11.618;2023-05-13T10:06:16;17.30;90.50
39925;DHT22;25592;49.986;11.618;2023-05-13T10:09:03;17.00;90.40
39925;DHT22;25592;49.986;11.618;2023-05-13T10:11:50;17.00;91.00
39925;DHT22;25592;49.986;11.618;2023-05-13T10:14:36;17.10;91.30
39925;DHT22;25592;49.986;11.618;2023-05-13T10:17:23;17.10;90.90
39925;DHT22;25592;49.986;11.618;2023-05-13T10:20:09;17.10;91.20
39925;DHT22;25592;49.986;11.618;2023-05-13T10:22:56;17.10;91.00
39925;DHT22;25592;49.986;11.618;2023-05-13T10:25:42;17.10;90.90
39925;DHT22;25592;49.986;11.618;2023-05-13T10:28:28;17.10;90.60
39925;DHT22;25592;49.986;11.618;2023-05-13T10:31:13;17.00;90.70
39925;DHT22;25592;49.986;11.618;2023-05-13T10:33:59;16.90;90.70
39925;DHT22;25592;49.986;11.618;2023-05-13T10:37:18;16.90;90.50
39925;DHT22;25592;49.986;11.618;2023-05-13T10:43:21;16.90;91.10
39925;DHT22;25592;49.986;11.618;2023-05-13T10:46:07;16.90;91.10
39925;DHT22;25592;49.986;11.618;2023-05-13T10:48:58;16.80;90.70
39925;DHT22;25592;49.986;11.618;2023-05-13T10:51:47;16.70;90.70
39925;DHT22;25592;49.986;11.618;2023-05-13T10:54:37;16.60;90.90
39925;DHT22;25592;49.986;11.618;2023-05-13T10:57:28;16.70;91.10
39925;DHT22;25592;49.986;11.618;2023-05-13T11:00:15;16.80;91.00
39925;DHT22;25592;49.986;11.618;2023-05-13T11:03:31;17.10;91.30
39925;DHT22;25592;49.986;11.618;2023-05-13T11:06:18;17.00;90.80
39925;DHT22;25592;49.986;11.618;2023-05-13T11:09:05;16.90;91.10
39925;DHT22;25592;49.986;11.618;2023-05-13T11:11:58;16.70;90.40
39925;DHT22;25592;49.986;11.618;2023-05-13T11:14:44;16.70;90.80
39925;DHT22;25592;49.986;11.618;2023-05-13T11:17:29;16.70;90.70
39925;DHT22;25592;49.986;11.618;2023-05-13T11:20:17;16.80;91.00
39925;DHT22;25592;49.986;11.618;2023-05-13T11:23:02;16.60;90.50
39925;DHT22;25592;49.986;11.618;2023-05-13T11:26:08;16.40;91.20
39925;DHT22;25592;49.986;11.618;2023-05-13T11:29:04;16.40;92.00
39925;DHT22;25592;49.986;11.618;2023-05-13T11:31:50;16.50;92.00
39925;DHT22;25592;49.986;11.618;2023-05-13T11:34:50;16.50;92.30
39925;DHT22;25592;49.986;11.618;2023-05-13T11:37:41;16.60;91.90
39925;DHT22;25592;49.986;11.618;2023-05-13T11:40:31;16.50;91.80
39925;DHT22;25592;49.986;11.618;2023-05-13T11:43:20;16.40;92.40
39925;DHT22;25592;49.986;11.618;2023-05-13T11:46:08;16.30;92.10
39925;DHT22;25592;49.986;11.618;2023-05-13T11:48:54;16.30;92.00
39925;DHT22;25592;49.986;11.618;2023-05-13T11:51:39;16.40;91.80
39925;DHT22;25592;49.986;11.618;2023-05-13T11:54:25;16.40;91.90
39925;DHT22;25592;49.986;11.618;2023-05-13T12:00:10;16.60;92.30
39925;DHT22;25592;49.986;11.618;2023-05-13T12:02:58;16.60;92.60
39925;DHT22;25592;49.986;11.618;2023-05-13T12:05:44;16.40;92.20
39925;DHT22;25592;49.986;11.618;2023-05-13T12:08:29;16.50;92.80
39925;DHT22;25592;49.986;11.618;2023-05-13T12:11:15;16.60;93.20
39925;DHT22;25592;49.986;11.618;2023-05-13T12:14:00;16.20;92.90
39925;DHT22;25592;49.986;11.618;2023-05-13T12:16:46;16.10;93.10
39925;DHT22;25592;49.986;11.618;2023-05-13T12:19:32;16.40;93.40
39925;DHT22;25592;49.986;11.618;2023-05-13T12:22:20;16.60;93.50
39925;DHT22;25592;49.986;11.618;2023-05-13T12:28:23;16.80;93.50
39925;DHT22;25592;49.986;11.618;2023-05-13T12:31:15;16.80;93.50
39925;DHT22;25592;49.986;11.618;2023-05-13T12:34:01;16.80;93.60
39925;DHT22;25592;49.986;11.618;2023-05-13T12:36:46;16.80;93.40
39925;DHT22;25592;49.986;11.618;2023-05-13T12:39:32;16.90;93.60
39925;DHT22;25592;49.986;11.618;2023-05-13T12:42:17;16.70;92.70
39925;DHT22;25592;49.986;11.618;2023-05-13T12:45:04;16.70;93.20
39925;DHT22;25592;49.986;11.618;2023-05-13T12:47:50;16.70;92.70
39925;DHT22;25592;49.986;11.618;2023-05-13T12:50:35;16.30;92.50
39925;DHT22;25592;49.986;11.618;2023-05-13T12:53:21;16.40;93.20
39925;DHT22;25592;49.986;11.618;2023-05-13T12:56:06;16.40;93.90
39925;DHT22;25592;49.986;11.618;2023-05-13T12:58:52;16.40;94.20
39925;DHT22;25592;49.986;11.618;2023-05-13T13:01:38;16.30;94.00
39925;DHT22;25592;49.986;11.618;2023-05-13T13:04:23;16.10;93.30
39925;DHT22;25592;49.986;11.618;2023-05-13T13:07:08;16.10;93.20
39925;DHT22;25592;49.986;11.618;2023-05-13T13:09:56;16.00;93.30
39925;DHT22;25592;49.986;11.618;2023-05-13T13:12:42;16.20;93.40
39925;DHT22;25592;49.986;11.618;2023-05-13T13:15:27;16.10;93.00
39925;DHT22;25592;49.986;11.618;2023-05-13T13:18:13;16.20;93.50
39925;DHT22;25592;49.986;11.618;2023-05-13T13:20:58;16.20;92.90
39925;DHT22;25592;49.986;11.618;2023-05-13T13:23:44;16.10;92.90
39925;DHT22;25592;49.986;11.618;2023-05-13T13:26:29;16.00;92.70
39925;DHT22;25592;49.986;11.618;2023-05-13T13:29:14;16.00;92.70
39925;DHT22;25592;49.986;11.618;2023-05-13T13:32:00;16.10;93.50
39925;DHT22;25592;49.986;11.618;2023-05-13T13:34:45;16.30;92.90
39925;DHT22;25592;49.986;11.618;2023-05-13T13:37:31;16.20;92.80
39925;DHT22;25592;49.986;11.618;2023-05-13T13:40:16;16.30;92.80
39925;DHT22;25592;49.986;11.618;2023-05-13T13:43:05;16.40;92.90
39925;DHT22;25592;49.986;11.618;2023-05-13T13:45:50;16.60;92.70
39925;DHT22;25592;49.986;11.618;2023-05-13T13:48:36;16.80;92.30
39925;DHT22;25592;49.986;11.618;2023-05-13T13:51:21;16.80;92.40
39925;DHT22;25592;49.986;11.618;2023-05-13T13:54:07;17.10;92.70
39925;DHT22;25592;49.986;11.618;2023-05-13T13:56:52;17.40;92.20
39925;DHT22;25592;49.986;11.618;2023-05-13T13:59:37;17.40;92.10
39925;DHT22;25592;49.986;11.618;2023-05-13T14:02:23;17.50;92.20
39925;DHT22;25592;49.986;11.618;2023-05-13T14:05:09;17.30;91.40
39925;DHT22;25592;49.986;11.618;2023-05-13T14:07:55;17.20;91.60
39925;DHT22;25592;49.986;11.618;2023-05-13T14:10:41;17.20;91.70
39925;DHT22;25592;49.986;11.618;2023-05-13T14:13:26;17.20;92.00
39925;DHT22;25592;49.986;11.618;2023-05-13T14:16:12;17.10;91.90
39925;DHT22;25592;49.986;11.618;2023-05-13T14:18:57;17.10;92.00
39925;DHT22;25592;49.986;11.618;2023-05-13T14:21:44;17.00;91.70
39925;DHT22;25592;49.986;11.618;2023-05-13T14:24:29;16.90;92.00
39925;DHT22;25592;49.986;11.618;2023-05-13T14:27:16;16.90;92.30
39925;DHT22;25592;49.986;11.618;2023-05-13T14:30:03;17.10;92.40
39925;DHT22;25592;49.986;11.618;2023-05-13T14:32:48;17.20;92.20
39925;DHT22;25592;49.986;11.618;2023-05-13T14:35:33;17.30;91.80
39925;DHT22;25592;49.986;11.618;2023-05-13T14:38:19;17.30;91.90
39925;DHT22;25592;49.986;11.618;2023-05-13T14:41:04;17.40;91.30
39925;DHT22;25592;49.986;11.618;2023-05-13T14:43:50;17.40;92.20
39925;DHT22;25592;49.986;11.618;2023-05-13T14:46:35;17.50;91.50
39925;DHT22;25592;49.986;11.618;2023-05-13T14:49:22;17.60;91.20
39925;DHT22;25592;49.986;11.618;2023-05-13T14:52:07;17.70;91.20
39925;DHT22;25592;49.986;11.618;2023-05-13T14:54:53;17.80;91.50
39925;DHT22;25592;49.986;11.618;2023-05-13T14:57:38;17.80;91.40
39925;DHT22;25592;49.986;11.618;2023-05-13T15:00:23;17.80;91.80
39925;DHT22;25592;49.986;11.618;2023-05-13T15:03:09;17.70;91.60
39925;DHT22;25592;49.986;11.618;2023-05-13T15:05:56;17.70;91.40
39925;DHT22;25592;49.986;11.618;2023-05-13T15:08:42;17.70;91.90
39925;DHT22;25592;49.986;11.618;2023-05-13T15:11:27;17.80;91.80
39925;DHT22;25592;49.986;11.618;2023-05-13T15:14:13;17.70;91.50
39925;DHT22;25592;49.986;11.618;2023-05-13T15:17:01;17.70;91.60
39925;DHT22;25592;49.986;11.618;2023-05-13T15:19:47;17.70;91.50
39925;DHT22;25592;49.986;11.618;2023-05-13T15:22:32;17.70;91.60
39925;DHT22;25592;49.986;11.618;2023-05-13T15:25:18;17.70;91.70
39925;DHT22;25592;49.986;11.618;2023-05-13T15:28:04;17.60;91.60
39925;DHT22;25592;49.986;11.618;2023-05-13T15:30:49;17.60;91.60
39925;DHT22;25592;49.986;11.618;2023-05-13T15:33:35;17.60;91.90
39925;DHT22;25592;49.986;11.618;2023-05-13T15:36:20;17.40;92.00
39925;DHT22;25592;49.986;11.618;2023-05-13T15:39:06;17.40;92.00
39925;DHT22;25592;49.986;11.618;2023-05-13T15:41:51;17.50;92.10
39925;DHT22;25592;49.986;11.618;2023-05-13T15:44:36;17.50;91.90
39925;DHT22;25592;49.986;11.618;2023-05-13T15:47:22;17.50;91.60
39925;DHT22;25592;49.986;11.618;2023-05-13T15:50:08;17.50;91.90
39925;DHT22;25592;49.986;11.618;2023-05-13T15:52:53;17.50;91.80
39925;DHT22;25592;49.986;11.618;2023-05-13T15:55:39;17.40;91.70
39925;DHT22;25592;49.986;11.618;2023-05-13T15:58:24;17.30;92.20
39925;DHT22;25592;49.986;11.618;2023-05-13T16:01:10;17.30;92.20
39925;DHT22;25592;49.986;11.618;2023-05-13T16:03:55;17.40;92.50
39925;DHT22;25592;49.986;11.618;2023-05-13T16:06:40;17.30;91.80
39925;DHT22;25592;49.986;11.618;2023-05-13T16:09:26;17.30;92.00
39925;DHT22;25592;49.986;11.618;2023-05-13T16:12:11;17.30;92.10
39925;DHT22;25592;49.986;11.618;2023-05-13T16:14:57;17.30;92.10
39925;DHT22;25592;49.986;11.618;2023-05-13T16:17:42;17.30;92.40
39925;DHT22;25592;49.986;11.618;2023-05-13T16:20:27;17.30;92.10
39925;DHT22;25592;49.986;11.618;2023-05-13T16:23:13;17.10;92.00
39925;DHT22;25592;49.986;11.618;2023-05-13T16:25:58;17.00;92.00
39925;DHT22;25592;49.986;11.618;2023-05-13T16:28:44;16.90;92.40
39925;DHT22;25592;49.986;11.618;2023-05-13T16:31:29;16.80;92.50
39925;DHT22;25592;49.986;11.618;2023-05-13T16:34:15;16.60;92.40
39925;DHT22;25592;49.986;11.618;2023-05-13T16:37:00;16.70;92.70
39925;DHT22;25592;49.986;11.618;2023-05-13T16:39:46;16.70;92.60
39925;DHT22;25592;49.986;11.618;2023-05-13T16:42:31;16.60;92.60
39925;DHT22;25592;49.986;11.618;2023-05-13T16:45:17;16.60;92.60
39925;DHT22;25592;49.986;11.618;2023-05-13T16:48:03;16.50;92.70
39925;DHT22;25592;49.986;11.618;2023-05-13T16:50:48;16.40;92.60
39925;DHT22;25592;49.986;11.618;2023-05-13T16:53:33;16.40;92.50
39925;DHT22;25592;49.986;11.618;2023-05-13T16:56:19;16.30;92.70
39925;DHT22;25592;49.986;11.618;2023-05-13T16:59:07;16.40;93.00
39925;DHT22;25592;49.986;11.618;2023-05-13T17:01:53;16.40;93.00
39925;DHT22;25592;49.986;11.618;2023-05-13T17:04:38;16.30;92.60
39925;DHT22;25592;49.986;11.618;2023-05-13T17:07:24;16.30;92.70
39925;DHT22;25592;49.986;11.618;2023-05-13T17:10:09;16.20;92.70
39925;DHT22;25592;49.986;11.618;2023-05-13T17:12:55;16.20;92.90
39925;DHT22;25592;49.986;11.618;2023-05-13T17:15:42;16.20;92.70
39925;DHT22;25592;49.986;11.618;2023-05-13T17:18:27;16.30;92.70
39925;DHT22;25592;49.986;11.618;2023-05-13T17:21:13;16.40;92.80
39925;DHT22;25592;49.986;11.618;2023-05-13T17:23:58;16.40;92.90